Kiona, Washington
Current Conditions -  °F | °C
As of 7:53 AM on Saturday 25 Oct 2014 (Local Time) from KPSC Reporting Station
Moderate Fog Moderate Fog  
Wind Chill: 44°   Ceiling: 400
Heat Index: 44°   Visibility: 0.25mi
Dew Point: 44°   Wind: 3mph
Humidity: 100%   Direction: 340°NNW
Pressure: 29.66"   Gusts: NA
Location:  46.2458°N, 119.519°W
Report Text: KPSC 251453Z 34003KT 1/4SM FG VV004 07/07 A2966 RMK AO2 SLP045 T00670067 56025 RVRNO
Loading
Personal Weather Stations






























Interactive Weather Map
Tropical Storm Tracking
New forecast layout! Learn more

10-Day Weather Forecast

Advertisements
Track Severe Weather on mobile